Time;durP1;ratioP1;P1;durP2;ratioP2;P2;SDS_P1;SDS_P2;PMS_P1;PMS_P2;Temp;Humidity;BMP_temperature;BMP_pressure;BME280_temperature;BME280_humidity;BME280_pressure;Samples;Min_cycle;Max_cycle;Signal;HPM_P1;HPM_P2
2024/01/20 00:00:23;;;;;;;4.50;3.80;;;;;;;7.14;54.65;101445.96;106746;1260;25325;-51
2024/01/20 00:02:50;;;;;;;4.20;3.80;;;;;;;7.12;54.79;101444.92;106827;1262;22537;-51
2024/01/20 00:05:17;;;;;;;4.60;3.80;;;;;;;7.10;54.71;101438.02;106658;1262;22518;-51
2024/01/20 00:07:45;;;;;;;4.80;3.90;;;;;;;7.06;54.73;101441.45;105981;1259;1002809;-51
2024/01/20 00:10:13;;;;;;;5.10;3.60;;;;;;;7.03;54.79;101445.91;106713;1259;22535;-51
2024/01/20 00:12:42;;;;;;;3.90;3.40;;;;;;;6.98;54.82;101446.41;106795;1264;25324;-51
2024/01/20 00:15:09;;;;;;;4.10;3.60;;;;;;;6.97;54.95;101451.75;106617;1276;25353;-51
2024/01/20 00:17:38;;;;;;;4.90;3.50;;;;;;;6.98;55.09;101460.21;106711;1262;22535;-50
2024/01/20 00:20:07;;;;;;;4.70;3.40;;;;;;;6.99;54.96;101475.91;106743;1261;25407;-53
2024/01/20 00:22:35;;;;;;;4.00;3.40;;;;;;;7.00;55.07;101492.30;106743;1260;25278;-52
2024/01/20 00:25:03;;;;;;;3.40;3.00;;;;;;;7.02;55.04;101499.57;106744;1260;22863;-50
2024/01/20 00:27:31;;;;;;;4.20;3.00;;;;;;;7.03;54.82;101499.56;106586;1259;22530;-53
2024/01/20 00:29:59;;;;;;;3.80;3.40;;;;;;;7.03;54.78;101514.39;106698;1272;25314;-52
2024/01/20 00:32:27;;;;;;;3.30;2.70;;;;;;;7.02;54.65;101523.89;106718;1262;25418;-52
2024/01/20 00:34:55;;;;;;;3.90;2.90;;;;;;;7.00;54.58;101528.19;106782;1267;25398;-52
2024/01/20 00:37:35;;;;;;;2.80;2.40;;;;;;;6.98;54.47;101525.92;106691;1276;25325;-51
2024/01/20 00:40:04;;;;;;;3.70;3.00;;;;;;;6.96;54.53;101516.09;105946;1262;1004227;-51
2024/01/20 00:42:32;;;;;;;4.30;3.00;;;;;;;6.92;54.50;101512.80;106075;1269;1003531;-51
2024/01/20 00:44:59;;;;;;;4.20;2.40;;;;;;;6.87;54.33;101501.57;106791;1259;25330;-51
2024/01/20 00:47:26;;;;;;;3.20;2.40;;;;;;;6.80;54.27;101497.05;106687;1263;25405;-51
2024/01/20 00:49:53;;;;;;;4.30;2.70;;;;;;;6.74;54.48;101503.90;106391;1260;25341;-51
2024/01/20 00:52:20;;;;;;;2.90;2.20;;;;;;;6.69;54.54;101503.36;105823;1276;1003005;-51
2024/01/20 00:54:47;;;;;;;2.50;2.00;;;;;;;6.64;54.36;101506.60;106410;1279;25492;-51
2024/01/20 00:57:15;;;;;;;2.50;2.30;;;;;;;6.63;54.44;101516.59;106600;1261;25343;-51
2024/01/20 00:59:42;;;;;;;3.30;2.20;;;;;;;6.61;54.49;101518.81;106394;1273;24234;-52
2024/01/20 01:02:09;;;;;;;2.70;2.20;;;;;;;6.57;54.51;101510.86;105634;1260;1003478;-52
2024/01/20 01:04:36;;;;;;;2.70;2.10;;;;;;;6.55;54.48;101530.16;106463;1270;25345;-52
2024/01/20 01:07:03;;;;;;;2.70;2.30;;;;;;;6.56;54.52;101546.03;106290;1279;25353;-53
2024/01/20 01:09:31;;;;;;;3.60;2.30;;;;;;;6.57;54.70;101546.90;106361;1261;25384;-52
2024/01/20 01:11:58;;;;;;;3.40;2.40;;;;;;;6.57;54.59;101525.52;106790;1263;24392;-52
2024/01/20 01:14:25;;;;;;;2.20;1.90;;;;;;;6.57;54.61;101515.33;106058;1265;1003150;-52
2024/01/20 01:16:52;;;;;;;2.20;2.00;;;;;;;6.56;54.66;101530.52;106706;1260;25474;-51
2024/01/20 01:19:20;;;;;;;6.20;2.20;;;;;;;6.53;54.65;101524.98;106821;1270;25366;-52
2024/01/20 01:21:47;;;;;;;3.40;2.20;;;;;;;6.51;54.61;101527.20;106077;1270;1003952;-51
2024/01/20 01:24:14;;;;;;;1.90;1.70;;;;;;;6.49;54.64;101531.33;106502;1263;24216;-51
2024/01/20 01:26:41;;;;;;;3.10;2.00;;;;;;;6.50;54.60;101526.34;106736;1266;25410;-51
2024/01/20 01:29:08;;;;;;;1.70;1.60;;;;;;;6.52;54.59;101520.83;106759;1263;25404;-51
2024/01/20 01:31:37;;;;;;;2.70;1.80;;;;;;;6.55;54.36;101516.19;105977;1263;1003291;-51
2024/01/20 01:34:04;;;;;;;3.20;1.90;;;;;;;6.59;54.19;101507.09;106588;1265;24249;-51
2024/01/20 01:36:31;;;;;;;2.40;1.90;;;;;;;6.64;54.32;101504.88;106736;1259;25363;-51
2024/01/20 01:38:58;;;;;;;2.60;2.10;;;;;;;6.67;54.35;101511.80;106522;1272;25363;-51
2024/01/20 01:41:25;;;;;;;2.30;2.10;;;;;;;6.69;54.59;101522.66;106583;1273;24238;-52
2024/01/20 01:43:52;;;;;;;2.20;2.00;;;;;;;6.71;54.60;101535.45;106717;1262;22534;-51
2024/01/20 01:46:20;;;;;;;3.60;2.40;;;;;;;6.73;54.73;101537.00;106752;1263;25370;-50
2024/01/20 01:48:47;;;;;;;3.10;2.20;;;;;;;6.72;54.86;101543.38;106441;1263;22530;-51
2024/01/20 01:51:14;;;;;;;3.30;2.30;;;;;;;6.70;54.95;101538.55;106747;1271;25339;-51
2024/01/20 01:53:41;;;;;;;2.60;2.30;;;;;;;6.69;55.12;101542.67;106846;1267;22557;-51
2024/01/20 01:56:10;;;;;;;2.90;2.40;;;;;;;6.67;55.15;101547.83;105676;1273;1002906;-51
2024/01/20 01:58:38;;;;;;;3.60;2.30;;;;;;;6.64;54.98;101548.31;106763;1271;25328;-51
2024/01/20 02:01:05;;;;;;;2.90;2.00;;;;;;;6.61;54.59;101548.63;106353;1270;25456;-51
2024/01/20 02:03:32;;;;;;;2.50;2.30;;;;;;;6.59;54.55;101544.15;106766;1262;25338;-51
2024/01/20 02:06:00;;;;;;;2.10;1.90;;;;;;;6.62;54.72;101543.31;106077;1266;1003772;-51
2024/01/20 02:08:28;;;;;;;2.40;1.70;;;;;;;6.65;54.50;101537.30;106678;1266;25477;-51
2024/01/20 02:10:55;;;;;;;2.30;2.00;;;;;;;6.67;54.43;101547.31;106816;1260;24257;-51
2024/01/20 02:13:22;;;;;;;3.40;1.80;;;;;;;6.67;54.52;101555.41;106793;1273;25325;-51
2024/01/20 02:15:49;;;;;;;2.40;1.90;;;;;;;6.66;54.51;101551.61;105789;1270;1002888;-51
2024/01/20 02:18:17;;;;;;;2.10;1.90;;;;;;;6.68;54.51;101573.17;106709;1276;25488;-51
2024/01/20 02:20:44;;;;;;;2.90;1.80;;;;;;;6.69;54.36;101578.70;105733;1275;1002879;-50
2024/01/20 02:23:13;;;;;;;3.30;2.00;;;;;;;6.68;53.91;101584.91;106570;1269;22521;-52
2024/01/20 02:25:39;;;;;;;3.40;2.20;;;;;;;6.68;53.81;101584.04;106576;1265;25369;-52
2024/01/20 02:28:07;;;;;;;3.40;2.10;;;;;;;6.69;53.65;101591.64;106755;1265;25408;-52
2024/01/20 02:30:33;;;;;;;2.40;1.90;;;;;;;6.70;53.09;101596.64;106712;1264;25348;-52
2024/01/20 02:33:01;;;;;;;2.00;1.80;;;;;;;6.71;53.16;101604.23;106785;1270;23269;-52
2024/01/20 02:35:28;;;;;;;2.10;1.90;;;;;;;6.72;52.95;101615.62;106722;1262;25318;-52
2024/01/20 02:37:55;;;;;;;3.00;1.70;;;;;;;6.72;52.71;101621.83;106690;1266;25363;-52
2024/01/20 02:40:23;;;;;;;2.20;1.60;;;;;;;6.73;52.54;101619.07;106701;1266;25510;-52
2024/01/20 02:42:50;;;;;;;2.70;1.70;;;;;;;6.72;52.31;101615.79;106695;1263;25340;-52
2024/01/20 02:45:17;;;;;;;2.60;2.00;;;;;;;6.73;52.23;101619.08;106677;1264;25364;-52
2024/01/20 02:47:44;;;;;;;2.90;1.80;;;;;;;6.73;52.48;101619.77;106765;1270;25376;-52
2024/01/20 02:50:11;;;;;;;2.10;1.30;;;;;;;6.74;52.58;101631.33;106764;1270;22564;-53
2024/01/20 02:52:38;;;;;;;2.30;1.80;;;;;;;6.75;52.56;101635.63;106792;1270;25555;-52
2024/01/20 02:55:06;;;;;;;2.70;1.60;;;;;;;6.76;52.66;101642.72;106722;1260;25346;-52
2024/01/20 02:57:33;;;;;;;1.50;1.30;;;;;;;6.78;52.80;101645.33;106669;1264;25343;-52
2024/01/20 03:00:00;;;;;;;1.50;1.40;;;;;;;6.80;52.75;101644.30;106499;1276;25316;-52
2024/01/20 03:02:27;;;;;;;2.20;1.60;;;;;;;6.82;52.59;101641.04;106486;1273;25340;-52
2024/01/20 03:04:54;;;;;;;1.60;1.50;;;;;;;6.81;52.61;101638.80;106768;1260;25322;-52
2024/01/20 03:07:21;;;;;;;1.50;1.40;;;;;;;6.83;52.80;101632.42;106733;1277;25397;-52
2024/01/20 03:09:51;;;;;;;1.50;1.40;;;;;;;6.85;52.48;101635.02;106446;1275;25499;-52
2024/01/20 03:12:18;;;;;;;1.80;1.60;;;;;;;6.85;52.57;101644.17;106690;1276;25359;-52
2024/01/20 03:14:46;;;;;;;1.90;1.50;;;;;;;6.85;52.63;101652.27;106183;1262;1003682;-50
2024/01/20 03:17:12;;;;;;;2.90;1.80;;;;;;;6.82;52.52;101656.21;106750;1269;23871;-52
2024/01/20 03:19:39;;;;;;;3.20;1.60;;;;;;;6.79;52.56;101662.41;106596;1261;25346;-53
2024/01/20 03:22:07;;;;;;;1.40;1.30;;;;;;;6.75;52.51;101662.73;106076;1261;1002385;-52
2024/01/20 03:24:34;;;;;;;2.20;1.70;;;;;;;6.72;52.34;101671.84;106733;1269;25328;-52
2024/01/20 03:27:01;;;;;;;3.00;1.80;;;;;;;6.71;52.64;101676.98;106723;1265;25325;-52
2024/01/20 03:29:28;;;;;;;2.30;1.60;;;;;;;6.72;52.77;101671.14;106508;1278;24037;-52
2024/01/20 03:31:55;;;;;;;2.70;1.70;;;;;;;6.71;52.78;101672.85;106518;1275;25426;-52
2024/01/20 03:34:22;;;;;;;1.90;1.60;;;;;;;6.68;52.66;101694.04;106584;1263;22649;-52
2024/01/20 03:36:50;;;;;;;3.20;1.50;;;;;;;6.68;52.74;101683.18;106764;1264;25319;-51
2024/01/20 03:39:17;;;;;;;2.00;1.60;;;;;;;6.68;52.68;101678.70;105925;1261;1003309;-52
2024/01/20 03:41:43;;;;;;;2.70;1.70;;;;;;;6.69;52.87;101688.19;106685;1270;24195;-51
2024/01/20 03:44:11;;;;;;;2.10;1.70;;;;;;;6.72;52.87;101690.64;106766;1270;23192;-52
2024/01/20 03:46:38;;;;;;;2.00;1.40;;;;;;;6.71;52.64;101712.34;106685;1269;25331;-52
2024/01/20 03:49:05;;;;;;;2.90;1.50;;;;;;;6.67;52.78;101715.23;105987;1270;1003345;-51
2024/01/20 03:51:32;;;;;;;1.50;1.30;;;;;;;6.64;52.68;101713.81;106840;1261;25376;-51
2024/01/20 03:54:01;;;;;;;2.20;1.20;;;;;;;6.61;52.81;101721.04;106851;1265;25315;-51
2024/01/20 03:56:29;;;;;;;2.20;1.50;;;;;;;6.60;53.04;101731.37;106092;1266;1003001;-51
2024/01/20 03:58:56;;;;;;;1.70;1.40;;;;;;;6.60;53.00;101740.67;106735;1260;25373;-51
2024/01/20 04:01:23;;;;;;;2.10;1.30;;;;;;;6.59;52.89;101739.46;105993;1257;1002962;-51
2024/01/20 04:03:51;;;;;;;1.60;1.40;;;;;;;6.61;52.95;101738.97;106706;1267;24279;-51
2024/01/20 04:06:18;;;;;;;2.00;1.40;;;;;;;6.55;53.12;101720.98;106780;1260;25356;-51
2024/01/20 04:08:45;;;;;;;2.40;1.30;;;;;;;6.55;53.28;101710.11;106685;1257;25502;-52
2024/01/20 04:11:12;;;;;;;1.70;1.50;;;;;;;6.57;53.33;101718.25;106469;1263;25353;-52
2024/01/20 04:13:39;;;;;;;1.70;1.40;;;;;;;6.58;53.49;101719.29;106759;1263;25353;-54
2024/01/20 04:16:06;;;;;;;2.50;1.50;;;;;;;6.58;53.26;101722.21;106519;1273;25523;-51
2024/01/20 04:18:33;;;;;;;3.30;2.30;;;;;;;6.59;53.34;101723.95;106854;1261;24211;-52
2024/01/20 04:21:01;;;;;;;3.10;2.00;;;;;;;6.57;53.01;101730.83;106820;1260;25353;-53
2024/01/20 04:23:28;;;;;;;2.10;1.90;;;;;;;6.56;52.92;101753.41;106338;1264;568279;-51
2024/01/20 04:25:55;;;;;;;2.70;1.90;;;;;;;6.54;53.03;101768.56;106700;1260;25465;-52
2024/01/20 04:28:22;;;;;;;2.40;2.00;;;;;;;6.54;53.15;101761.32;106797;1257;25328;-53
2024/01/20 04:30:50;;;;;;;2.90;2.20;;;;;;;6.55;53.24;101750.81;106796;1261;25447;-51
2024/01/20 04:33:17;;;;;;;3.70;2.50;;;;;;;6.56;53.31;101748.41;106807;1263;22539;-51
2024/01/20 04:35:45;;;;;;;5.30;2.20;;;;;;;6.59;53.43;101746.87;105941;1260;1003001;-52
2024/01/20 04:38:12;;;;;;;2.90;2.50;;;;;;;6.62;53.31;101754.48;106548;1260;22537;-51
2024/01/20 04:40:39;;;;;;;2.90;2.30;;;;;;;6.64;53.09;101760.37;105851;1270;1003319;-51
2024/01/20 04:43:06;;;;;;;3.70;2.90;;;;;;;6.66;53.03;101772.99;106491;1257;25376;-52
2024/01/20 04:45:33;;;;;;;3.00;2.40;;;;;;;6.67;52.85;101792.66;106461;1261;25356;-52
2024/01/20 04:48:01;;;;;;;3.60;3.10;;;;;;;6.66;52.86;101803.86;105765;1267;1003465;-55
2024/01/20 04:50:28;;;;;;;3.50;2.80;;;;;;;6.64;52.87;101816.75;106236;1264;23864;-52
2024/01/20 04:52:55;;;;;;;4.90;3.40;;;;;;;6.56;52.89;101834.09;106498;1261;25383;-52
2024/01/20 04:55:22;;;;;;;4.00;2.50;;;;;;;6.53;52.92;101831.98;106635;1258;25328;-52
2024/01/20 04:57:49;;;;;;;3.80;2.70;;;;;;;6.54;53.46;101823.02;106663;1270;25622;-52
2024/01/20 05:00:17;;;;;;;2.70;2.30;;;;;;;6.56;53.69;101817.01;106685;1276;25328;-53
2024/01/20 05:02:44;;;;;;;3.40;2.60;;;;;;;6.56;53.85;101817.52;105808;1270;1002791;-50
2024/01/20 05:05:11;;;;;;;4.60;2.80;;;;;;;6.54;53.90;101827.16;106240;1278;25348;-52
2024/01/20 05:07:38;;;;;;;4.50;2.50;;;;;;;6.52;54.04;101842.66;106255;1279;25488;-50
2024/01/20 05:10:06;;;;;;;5.10;3.00;;;;;;;6.49;54.16;101851.23;106392;1269;25353;-52
2024/01/20 05:12:34;;;;;;;3.60;2.70;;;;;;;6.48;54.27;101855.53;106550;1258;23891;-52
2024/01/20 05:15:02;;;;;;;4.10;2.60;;;;;;;6.49;54.36;101860.20;106390;1270;23885;-50
2024/01/20 05:17:29;;;;;;;4.20;3.10;;;;;;;6.50;54.33;101863.66;106461;1270;25328;-52
2024/01/20 05:19:56;;;;;;;3.90;3.10;;;;;;;6.50;54.14;101879.52;106371;1258;25382;-52
2024/01/20 05:22:24;;;;;;;4.60;3.00;;;;;;;6.52;54.19;101891.60;106400;1259;1002932;-51
2024/01/20 05:24:51;;;;;;;7.70;3.50;;;;;;;6.51;53.78;101897.80;106651;1260;24214;-51
2024/01/20 05:27:18;;;;;;;4.20;3.40;;;;;;;6.50;53.55;101900.20;106729;1270;25341;-51
2024/01/20 05:29:45;;;;;;;3.60;3.10;;;;;;;6.47;53.32;101905.17;106039;1261;1003555;-51
2024/01/20 05:32:14;;;;;;;5.90;3.60;;;;;;;6.46;53.16;101916.00;106621;1267;25584;-51
2024/01/20 05:34:41;;;;;;;4.30;3.50;;;;;;;6.44;53.07;101918.91;106776;1260;25356;-51
2024/01/20 05:37:09;;;;;;;4.80;3.00;;;;;;;6.44;52.95;101923.73;106675;1264;25439;-51
2024/01/20 05:39:36;;;;;;;5.40;3.60;;;;;;;6.44;52.97;101930.11;106825;1261;25334;-51
2024/01/20 05:42:04;;;;;;;3.90;3.50;;;;;;;6.43;53.00;101936.48;106690;1265;25475;-51
2024/01/20 05:44:31;;;;;;;5.20;3.80;;;;;;;6.45;52.93;101939.95;106545;1264;25386;-51
2024/01/20 05:46:58;;;;;;;5.80;3.90;;;;;;;6.45;52.89;101949.95;106524;1272;25405;-51
2024/01/20 05:49:25;;;;;;;7.00;4.00;;;;;;;6.46;52.96;101951.33;106616;1258;24266;-51
2024/01/20 05:51:52;;;;;;;4.60;3.30;;;;;;;6.48;53.13;101954.13;106526;1274;25494;-51
2024/01/20 05:54:19;;;;;;;5.90;3.70;;;;;;;6.63;52.96;101958.13;106697;1261;25367;-51
2024/01/20 05:56:46;;;;;;;6.90;4.20;;;;;;;7.06;51.43;101949.01;106677;1264;25367;-52
2024/01/20 05:59:13;;;;;;;5.90;4.20;;;;;;;6.55;52.38;101944.91;106051;1265;1003079;-51
2024/01/20 06:01:40;;;;;;;6.40;4.20;;;;;;;6.43;52.80;101941.29;106782;1258;25434;-51
2024/01/20 06:04:07;;;;;;;6.20;4.00;;;;;;;6.39;52.79;101938.14;106656;1262;25488;-51
2024/01/20 06:06:34;;;;;;;6.70;4.20;;;;;;;6.39;52.90;101939.00;106769;1261;25488;-51
2024/01/20 06:09:02;;;;;;;6.70;4.10;;;;;;;6.38;52.81;101945.55;106645;1264;25353;-51
2024/01/20 06:11:29;;;;;;;6.10;4.70;;;;;;;6.39;52.71;101944.34;106713;1264;25341;-51
2024/01/20 06:13:57;;;;;;;8.20;3.80;;;;;;;6.39;52.64;101947.10;106021;1266;1002997;-51
2024/01/20 06:16:24;;;;;;;5.90;4.50;;;;;;;6.39;52.77;101960.02;106697;1256;25345;-52
2024/01/20 06:18:50;;;;;;;5.80;4.40;;;;;;;6.39;52.82;101958.64;106844;1258;24394;-51
2024/01/20 06:21:21;;;;;;;6.40;4.10;;;;;;;6.38;52.65;101961.23;105787;1272;1002861;-50
2024/01/20 06:23:49;;;;;;;6.10;4.30;;;;;;;6.38;52.35;101958.30;106451;1256;24279;-51
2024/01/20 06:26:16;;;;;;;7.50;4.50;;;;;;;6.38;52.39;101957.95;105696;1260;1002917;-52
2024/01/20 06:28:43;;;;;;;7.10;4.90;;;;;;;6.39;52.36;101962.27;106592;1257;24145;-52
2024/01/20 06:31:21;;;;;;;8.50;5.30;;;;;;;6.41;52.52;101974.19;106815;1261;25338;-52
2024/01/20 06:33:48;;;;;;;9.40;5.70;;;;;;;6.44;52.54;101973.71;106728;1257;25291;-51
2024/01/20 06:36:15;;;;;;;8.00;5.30;;;;;;;6.44;52.46;101977.33;106747;1261;25415;-51
2024/01/20 06:38:43;;;;;;;8.90;5.80;;;;;;;6.45;52.48;101988.73;106765;1257;25359;-54
2024/01/20 06:41:10;;;;;;;8.90;6.30;;;;;;;6.46;52.59;101995.30;106701;1259;25337;-52
2024/01/20 06:43:37;;;;;;;9.70;6.70;;;;;;;6.47;52.36;102006.85;106620;1260;25478;-52
2024/01/20 06:46:04;;;;;;;8.70;6.10;;;;;;;6.48;52.42;102013.60;106665;1263;25328;-52
2024/01/20 06:48:33;;;;;;;8.30;6.40;;;;;;;6.48;52.44;102022.73;105926;1260;1002894;-53
2024/01/20 06:51:01;;;;;;;8.80;6.40;;;;;;;6.48;52.35;102017.74;106552;1264;25419;-51
2024/01/20 06:53:32;;;;;;;10.40;7.30;;;;;;;6.50;52.13;102022.77;106719;1261;25328;-52
2024/01/20 06:55:59;;;;;;;10.90;7.30;;;;;;;6.50;52.02;102027.25;106755;1260;22529;-51
2024/01/20 06:58:25;;;;;;;9.90;7.20;;;;;;;6.51;52.19;102031.58;106711;1256;24237;-52
2024/01/20 07:00:52;;;;;;;10.50;7.60;;;;;;;6.51;52.29;102044.32;106684;1272;24252;-51
2024/01/20 07:03:21;;;;;;;10.80;7.50;;;;;;;6.57;52.27;102051.82;106667;1262;25488;-52
2024/01/20 07:05:50;;;;;;;11.90;6.70;;;;;;;6.62;52.11;102057.23;106389;1273;25371;-52
2024/01/20 07:08:16;;;;;;;11.70;8.00;;;;;;;6.62;51.83;102059.66;106660;1261;25315;-51
2024/01/20 07:10:44;;;;;;;10.20;6.80;;;;;;;6.61;51.75;102062.40;106780;1271;25395;-51
2024/01/20 07:13:11;;;;;;;11.00;7.50;;;;;;;6.62;51.65;102069.13;106745;1259;25357;-51
2024/01/20 07:15:38;;;;;;;10.40;7.60;;;;;;;6.63;51.73;102071.38;106355;1265;25363;-52
2024/01/20 07:18:06;;;;;;;11.20;8.10;;;;;;;6.63;51.70;102070.01;106377;1264;25328;-51
2024/01/20 07:20:33;;;;;;;10.80;7.50;;;;;;;6.62;51.70;102067.77;106776;1256;24230;-52
2024/01/20 07:23:00;;;;;;;9.60;7.30;;;;;;;6.64;51.66;102065.02;105975;1265;1003340;-52
2024/01/20 07:25:27;;;;;;;11.30;7.60;;;;;;;6.66;51.57;102073.17;106768;1257;25405;-51
2024/01/20 07:27:54;;;;;;;12.40;8.10;;;;;;;6.68;51.40;102080.63;106850;1260;25513;-51
2024/01/20 07:30:22;;;;;;;11.60;7.80;;;;;;;6.68;51.33;102067.69;106287;1260;1003070;-52
2024/01/20 07:32:49;;;;;;;9.70;7.20;;;;;;;6.69;51.37;102068.39;106755;1261;22527;-51
2024/01/20 07:35:16;;;;;;;11.90;8.10;;;;;;;6.70;51.20;102075.98;106704;1260;25462;-52
2024/01/20 07:37:43;;;;;;;13.40;8.30;;;;;;;6.66;51.28;102087.83;106004;1272;1002992;-52
2024/01/20 07:40:11;;;;;;;12.90;8.50;;;;;;;6.59;51.36;102101.34;106697;1264;25357;-52
2024/01/20 07:42:40;;;;;;;13.90;8.90;;;;;;;6.60;51.38;102115.13;106823;1260;25159;-52
2024/01/20 07:45:07;;;;;;;12.70;8.80;;;;;;;6.59;51.60;102112.20;106044;1257;1003763;-52
2024/01/20 07:47:34;;;;;;;12.00;8.70;;;;;;;6.62;51.69;102105.52;105974;1256;1002976;-53
2024/01/20 07:50:02;;;;;;;12.40;8.80;;;;;;;6.59;51.62;102104.44;106587;1270;25356;-52
2024/01/20 07:52:29;;;;;;;12.90;8.90;;;;;;;6.55;51.75;102111.10;106424;1258;25379;-51
2024/01/20 07:54:56;;;;;;;13.40;9.20;;;;;;;6.51;51.82;102120.34;106264;1272;25328;-52
2024/01/20 07:57:23;;;;;;;11.80;8.90;;;;;;;6.49;51.67;102126.34;105859;1260;1003114;-51
2024/01/20 07:59:50;;;;;;;13.10;9.60;;;;;;;6.44;51.50;102127.30;105793;1259;1003689;-51
2024/01/20 08:02:18;;;;;;;12.50;8.50;;;;;;;6.45;51.82;102129.89;106796;1260;25339;-51
2024/01/20 08:04:45;;;;;;;15.20;9.80;;;;;;;6.48;52.33;102133.92;106827;1272;25405;-50
2024/01/20 08:07:13;;;;;;;15.60;9.60;;;;;;;6.48;52.48;102135.11;105618;1280;1003423;-51
2024/01/20 08:09:40;;;;;;;14.30;9.70;;;;;;;6.47;52.03;102139.42;105897;1273;1002880;-51
2024/01/20 08:12:07;;;;;;;13.40;9.00;;;;;;;6.48;52.54;102142.36;106548;1279;25403;-52
2024/01/20 08:14:34;;;;;;;12.00;9.10;;;;;;;6.50;52.82;102147.40;106012;1258;1003593;-51
2024/01/20 08:17:01;;;;;;;11.60;8.30;;;;;;;6.52;53.09;102156.05;105974;1260;1003162;-51
2024/01/20 08:19:29;;;;;;;13.20;9.60;;;;;;;6.54;53.27;102158.84;106751;1261;25346;-51
2024/01/20 08:21:56;;;;;;;15.60;9.80;;;;;;;6.56;53.25;102153.52;106703;1259;25234;-51
2024/01/20 08:24:23;;;;;;;15.00;10.00;;;;;;;6.55;53.25;102164.89;106700;1261;25406;-51
2024/01/20 08:26:50;;;;;;;14.40;10.50;;;;;;;6.54;53.20;102188.33;106051;1258;1003037;-51
2024/01/20 08:29:18;;;;;;;14.80;10.20;;;;;;;6.53;53.23;102186.40;106603;1263;25356;-51
2024/01/20 08:31:45;;;;;;;15.80;10.80;;;;;;;6.50;53.08;102176.19;106656;1260;25490;-51
2024/01/20 08:34:13;;;;;;;14.80;10.50;;;;;;;6.49;53.11;102173.41;106757;1260;25349;-51
2024/01/20 08:36:40;;;;;;;15.40;11.50;;;;;;;6.50;52.95;102184.46;106834;1260;25337;-51
2024/01/20 08:39:07;;;;;;;16.90;11.80;;;;;;;6.46;52.65;102192.66;105946;1257;1003394;-51
2024/01/20 08:41:34;;;;;;;19.10;12.10;;;;;;;6.42;52.19;102202.23;106835;1259;25409;-51
2024/01/20 08:44:01;;;;;;;16.90;11.90;;;;;;;6.36;51.36;102205.58;106754;1268;24210;-52
2024/01/20 08:46:29;;;;;;;17.60;12.80;;;;;;;6.35;51.22;102217.96;106711;1257;22813;-51
2024/01/20 08:48:56;;;;;;;18.10;12.50;;;;;;;6.32;51.27;102220.15;106714;1268;24182;-51
2024/01/20 08:51:24;;;;;;;16.60;12.30;;;;;;;6.31;51.39;102217.73;106011;1260;1003025;-51
2024/01/20 08:53:51;;;;;;;14.50;11.70;;;;;;;6.30;51.55;102218.39;106754;1263;25338;-51
2024/01/20 08:56:19;;;;;;;19.70;13.50;;;;;;;6.30;51.57;102222.89;106869;1266;25346;-51
2024/01/20 08:58:46;;;;;;;19.40;12.80;;;;;;;6.29;51.19;102227.16;106705;1256;22712;-51
2024/01/20 09:01:12;;;;;;;17.40;12.00;;;;;;;6.27;51.08;102229.53;106765;1261;25328;-51
2024/01/20 09:03:40;;;;;;;17.50;12.20;;;;;;;6.24;51.06;102230.85;106902;1272;25419;-51
2024/01/20 09:06:07;;;;;;;19.00;12.80;;;;;;;6.23;50.97;102230.15;105989;1261;1003184;-51
2024/01/20 09:08:35;;;;;;;21.60;15.00;;;;;;;6.24;50.97;102230.67;105917;1260;1003255;-51
2024/01/20 09:11:02;;;;;;;20.30;14.10;;;;;;;6.20;51.03;102228.89;106834;1260;25434;-51
2024/01/20 09:13:29;;;;;;;22.80;14.80;;;;;;;6.17;51.07;102224.34;105923;1260;1002935;-51
2024/01/20 09:15:56;;;;;;;22.50;14.30;;;;;;;6.17;51.28;102227.10;106624;1259;25353;-51
2024/01/20 09:18:23;;;;;;;18.10;13.30;;;;;;;6.19;51.61;102234.55;106831;1261;25356;-51
2024/01/20 09:20:51;;;;;;;18.10;13.80;;;;;;;6.21;51.65;102245.61;106351;1277;25346;-51
2024/01/20 09:23:18;;;;;;;18.70;14.80;;;;;;;6.21;51.78;102255.27;106739;1260;25408;-51
2024/01/20 09:25:46;;;;;;;20.90;14.60;;;;;;;6.18;51.71;102247.11;105977;1261;1003591;-51
2024/01/20 09:28:13;;;;;;;21.90;15.10;;;;;;;6.15;51.74;102247.89;106746;1256;25517;-51
2024/01/20 09:30:40;;;;;;;24.30;15.50;;;;;;;6.13;51.96;102244.58;105802;1259;1003753;-51
2024/01/20 09:33:07;;;;;;;21.50;15.30;;;;;;;6.14;52.02;102256.83;106384;1262;25351;-51
2024/01/20 09:35:35;;;;;;;21.00;14.80;;;;;;;6.12;51.79;102261.45;106725;1261;24040;-54
2024/01/20 09:38:03;;;;;;;23.30;15.30;;;;;;;6.10;51.47;102264.35;106507;1257;24175;-51
2024/01/20 09:40:32;;;;;;;23.40;16.30;;;;;;;6.10;51.71;102272.63;105514;1263;1003373;-51
2024/01/20 09:42:59;;;;;;;23.00;16.70;;;;;;;6.10;51.34;102277.77;106324;1259;25509;-51
2024/01/20 09:45:26;;;;;;;27.30;18.20;;;;;;;6.12;51.45;102279.20;106409;1258;25346;-51
2024/01/20 09:47:53;;;;;;;22.70;16.50;;;;;;;6.10;51.06;102273.99;106619;1256;25395;-51
2024/01/20 09:50:20;;;;;;;25.10;16.40;;;;;;;6.09;50.98;102281.90;106842;1269;25338;-51
2024/01/20 09:53:00;;;;;;;24.10;17.00;;;;;;;6.08;51.22;102288.23;106834;1256;24480;-51
2024/01/20 09:55:28;;;;;;;22.80;16.50;;;;;;;6.03;51.05;102289.52;105943;1269;1003537;-52
2024/01/20 09:57:55;;;;;;;29.30;18.00;;;;;;;6.03;50.95;102297.78;106720;1259;25366;-52
2024/01/20 10:00:23;;;;;;;24.70;17.80;;;;;;;6.00;50.91;102298.06;106645;1260;22661;-51
2024/01/20 10:02:51;;;;;;;28.70;18.60;;;;;;;6.00;51.23;102302.04;106688;1256;25342;-51
2024/01/20 10:05:18;;;;;;;25.00;17.30;;;;;;;6.03;51.51;102307.96;106835;1260;25482;-51
2024/01/20 10:07:45;;;;;;;23.70;18.50;;;;;;;6.05;51.04;102305.42;106536;1264;25366;-51
2024/01/20 10:10:22;;;;;;;23.60;16.30;;;;;;;6.07;51.13;102305.62;105994;1259;1003759;-51
2024/01/20 10:12:50;;;;;;;29.70;19.00;;;;;;;6.07;50.82;102293.56;106794;1259;25363;-51
2024/01/20 10:15:28;;;;;;;27.50;17.20;;;;;;;6.10;50.70;102281.05;106544;1259;25339;-51
2024/01/20 10:18:10;;;;;;;26.10;17.20;;;;;;;6.11;50.45;102286.60;105715;1261;1003443;-51
2024/01/20 10:20:38;;;;;;;25.40;16.60;;;;;;;6.12;50.17;102295.55;105782;1278;1003156;-51
2024/01/20 10:23:05;;;;;;;24.90;17.10;;;;;;;6.12;50.15;102291.25;106476;1275;22556;-51
2024/01/20 10:25:33;;;;;;;22.20;15.60;;;;;;;6.11;50.17;102297.62;106496;1275;25389;-51
2024/01/20 10:28:00;;;;;;;24.10;16.50;;;;;;;6.11;50.28;102295.89;106509;1275;25374;-52
2024/01/20 10:30:28;;;;;;;27.20;17.20;;;;;;;6.11;50.20;102305.02;106549;1282;25417;-52
2024/01/20 10:32:55;;;;;;;24.50;16.80;;;;;;;6.11;50.13;102300.36;105485;1282;1003046;-55
2024/01/20 10:35:36;;;;;;;24.00;16.60;;;;;;;6.02;49.92;102296.91;106492;1282;25363;-53
2024/01/20 10:38:04;;;;;;;23.30;17.20;;;;;;;6.01;50.11;102295.33;105740;1260;1003262;-54
2024/01/20 10:40:32;;;;;;;24.20;16.40;;;;;;;6.03;50.05;102300.38;105453;1284;1003453;-52
2024/01/20 10:43:06;;;;;;;24.20;16.60;;;;;;;6.06;50.02;102296.98;105989;1265;25339;-51
2024/01/20 10:45:38;;;;;;;25.00;16.50;;;;;;;6.08;50.15;102307.71;106085;1265;22553;-53
2024/01/20 10:48:12;;;;;;;25.40;15.90;;;;;;;6.09;50.11;102312.91;105337;1267;1002661;-51
2024/01/20 10:50:44;;;;;;;27.40;18.30;;;;;;;6.08;50.12;102318.56;106033;1264;25416;-52
2024/01/20 10:53:11;;;;;;;21.80;16.60;;;;;;;6.09;50.17;102319.96;106416;1278;25415;-52
2024/01/20 10:55:42;;;;;;;27.30;18.50;;;;;;;6.07;50.19;102316.31;106606;1262;24355;-52
2024/01/20 10:58:09;;;;;;;28.70;17.80;;;;;;;6.08;50.41;102320.98;106004;1262;1002901;-53
2024/01/20 11:00:39;;;;;;;26.40;18.20;;;;;;;6.10;50.41;102317.23;106547;1277;25644;-54
2024/01/20 11:03:06;;;;;;;24.40;16.70;;;;;;;6.10;49.97;102320.15;105725;1265;1003018;-52
2024/01/20 11:05:34;;;;;;;26.50;18.80;;;;;;;6.10;49.85;102323.42;106681;1263;24233;-51
2024/01/20 11:08:05;;;;;;;24.80;16.70;;;;;;;6.08;49.52;102325.80;105531;1266;1003554;-51
2024/01/20 11:10:42;;;;;;;29.10;18.40;;;;;;;6.08;49.82;102322.86;106152;1270;24204;-52
2024/01/20 11:13:10;;;;;;;23.00;16.90;;;;;;;6.09;49.84;102320.99;106614;1256;25682;-51
2024/01/20 11:15:38;;;;;;;24.30;16.30;;;;;;;6.09;49.75;102323.41;106510;1270;25362;-52
2024/01/20 11:18:17;;;;;;;24.80;17.60;;;;;;;6.10;49.66;102322.05;106461;1256;22659;-53